createdAt,value
2023-05-11T00:03:08.344Z,1.15
2023-05-11T00:08:29.014Z,1.88
2023-05-11T00:13:50.004Z,0.50
2023-05-11T00:19:10.804Z,1.23
2023-05-11T00:24:31.305Z,1.58
2023-05-11T00:29:51.806Z,4.85
2023-05-11T00:35:12.673Z,14.82
2023-05-11T00:40:33.954Z,2.65
2023-05-11T00:45:54.881Z,2.28
2023-05-11T00:51:15.217Z,2.47
2023-05-11T00:56:35.528Z,1.52
2023-05-11T01:01:56.725Z,1.45
2023-05-11T01:07:23.017Z,1.67
2023-05-11T01:13:11.686Z,4.07
2023-05-11T01:18:39.279Z,2.90
2023-05-11T01:24:13.843Z,10.30
2023-05-11T01:29:59.169Z,3.17
2023-05-11T01:35:23.185Z,3.15
2023-05-11T01:40:44.733Z,3.83
2023-05-11T01:46:06.898Z,17.63
2023-05-11T01:51:34.770Z,8.25
2023-05-11T01:56:57.181Z,9.05
2023-05-11T02:02:19.829Z,3.03
2023-05-11T02:07:43.680Z,5.63
2023-05-11T02:13:05.768Z,2.50
2023-05-11T02:18:28.463Z,2.88
2023-05-11T02:23:52.967Z,4.10
2023-05-11T02:29:14.636Z,9.55
2023-05-11T02:34:43.454Z,2.05
2023-05-11T02:40:13.541Z,4.30
2023-05-11T02:45:35.464Z,5.32
2023-05-11T02:50:58.327Z,6.15
2023-05-11T02:56:24.924Z,2.55
2023-05-11T03:01:48.267Z,2.97
2023-05-11T03:07:09.564Z,4.60
2023-05-11T03:12:33.903Z,3.15
2023-05-11T03:17:56.618Z,12.30
2023-05-11T03:23:18.831Z,3.67
2023-05-11T03:28:41.926Z,3.95
2023-05-11T03:34:02.865Z,7.47
2023-05-11T03:39:31.448Z,4.47
2023-05-11T03:44:58.391Z,8.75
2023-05-11T03:50:21.207Z,5.18
2023-05-11T03:55:42.306Z,4.65
2023-05-11T04:01:03.955Z,6.72
2023-05-11T04:06:24.531Z,7.55
2023-05-11T04:11:53.378Z,6.85
2023-05-11T04:17:14.933Z,4.93
2023-05-11T04:22:38.092Z,1.83
2023-05-11T04:27:59.073Z,1.92
2023-05-11T04:33:20.091Z,2.80
2023-05-11T04:38:40.873Z,4.78
2023-05-11T04:44:02.134Z,3.72
2023-05-11T04:49:23.768Z,7.43
2023-05-11T04:54:44.827Z,4.18
2023-05-11T05:00:08.779Z,3.72
2023-05-11T05:05:30.113Z,3.58
2023-05-11T05:10:50.576Z,2.97
2023-05-11T05:16:11.565Z,2.72
2023-05-11T05:21:32.522Z,5.60
2023-05-11T05:26:53.052Z,3.10
2023-05-11T05:32:14.021Z,3.47
2023-05-11T05:37:34.669Z,2.20
2023-05-11T05:42:55.063Z,1.58
2023-05-11T05:48:17.882Z,2.55
2023-05-11T05:53:38.850Z,2.65
2023-05-11T05:58:59.182Z,1.40
2023-05-11T06:04:21.033Z,2.15
2023-05-11T06:09:41.728Z,3.35
2023-05-11T06:15:02.960Z,7.35
2023-05-11T06:20:26.712Z,4.45
2023-05-11T06:25:48.037Z,4.18
2023-05-11T06:31:08.931Z,3.55
2023-05-11T06:36:32.229Z,6.82
2023-05-11T06:41:55.358Z,7.35
2023-05-11T06:47:17.232Z,4.67
2023-05-11T06:52:37.912Z,2.47
2023-05-11T06:57:58.370Z,1.70
2023-05-11T07:03:18.846Z,3.00
2023-05-11T07:08:39.317Z,2.45
2023-05-11T07:14:00.196Z,1.45
2023-05-11T07:19:20.910Z,2.20
2023-05-11T07:24:41.836Z,4.10
2023-05-11T07:30:04.252Z,2.03
2023-05-11T07:35:25.556Z,8.30
2023-05-11T07:40:46.535Z,4.40
2023-05-11T07:46:07.335Z,1.98
2023-05-11T07:51:27.891Z,2.70
2023-05-11T07:56:48.265Z,4.38
2023-05-11T08:02:10.988Z,1.40
2023-05-11T08:07:33.441Z,1.90
2023-05-11T08:12:53.772Z,3.63
2023-05-11T08:18:14.600Z,2.13
2023-05-11T08:23:35.165Z,2.40
2023-05-11T08:28:56.087Z,3.15
2023-05-11T08:34:20.019Z,3.00
2023-05-11T08:39:47.110Z,2.00
2023-05-11T08:45:10.498Z,3.05
2023-05-11T08:50:31.104Z,2.50
2023-05-11T08:55:51.765Z,2.90
2023-05-11T09:01:12.631Z,2.22
2023-05-11T09:06:34.079Z,4.15
2023-05-11T09:11:55.307Z,2.72
2023-05-11T09:17:15.704Z,2.75
2023-05-11T09:22:44.740Z,4.03
2023-05-11T09:28:05.401Z,3.20
2023-05-11T09:33:26.020Z,2.70
2023-05-11T09:38:46.345Z,3.95
2023-05-11T09:44:14.577Z,2.55
2023-05-11T09:49:35.241Z,4.15
2023-05-11T09:54:55.476Z,3.05
2023-05-11T10:00:16.428Z,3.67
2023-05-11T10:05:37.012Z,2.72
2023-05-11T10:10:58.181Z,3.30
2023-05-11T10:16:20.343Z,3.30
2023-05-11T10:21:41.030Z,2.95
2023-05-11T10:27:02.742Z,3.47
2023-05-11T10:32:23.342Z,4.60
2023-05-11T10:37:43.732Z,5.13
2023-05-11T10:43:10.187Z,4.43
2023-05-11T10:48:49.660Z,4.20
2023-05-11T10:54:29.422Z,4.68
2023-05-11T11:00:35.797Z,3.95
2023-05-11T11:11:29.526Z,8.35
2023-05-11T11:17:23.964Z,4.50
2023-05-11T11:22:47.425Z,4.47
2023-05-11T11:28:08.179Z,10.20
2023-05-11T11:33:28.818Z,4.22
2023-05-11T11:39:00.273Z,4.53
2023-05-11T11:44:21.987Z,4.25
2023-05-11T11:49:44.910Z,5.40
2023-05-11T11:55:05.525Z,4.65
2023-05-11T12:00:26.393Z,4.35
2023-05-11T12:05:50.237Z,5.53
2023-05-11T12:11:10.910Z,5.15
2023-05-11T12:16:32.225Z,4.90
2023-05-11T12:21:53.206Z,4.72
2023-05-11T12:27:13.474Z,5.68
2023-05-11T12:32:34.010Z,5.55
2023-05-11T12:37:56.020Z,5.68
2023-05-11T12:43:19.390Z,6.07
2023-05-11T12:48:40.129Z,5.43
2023-05-11T12:54:00.746Z,5.07
2023-05-11T12:59:30.328Z,4.97
2023-05-11T13:04:51.061Z,5.97
2023-05-11T13:10:14.272Z,7.03
2023-05-11T13:15:35.453Z,8.07
2023-05-11T13:21:06.692Z,6.28
2023-05-11T13:26:30.451Z,6.85
2023-05-11T13:31:53.057Z,9.13
2023-05-11T13:37:13.642Z,5.70
2023-05-11T13:42:34.218Z,6.18
2023-05-11T13:47:57.897Z,6.03
2023-05-11T13:53:18.462Z,7.65
2023-05-11T13:58:39.022Z,7.38
2023-05-11T14:03:59.705Z,7.40
2023-05-11T14:09:20.459Z,4.53
2023-05-11T14:14:40.856Z,4.60
2023-05-11T14:20:01.634Z,4.85
2023-05-11T14:25:21.978Z,8.18
2023-05-11T14:30:42.459Z,6.30
2023-05-11T14:36:03.689Z,5.72
2023-05-11T14:41:24.044Z,7.45
2023-05-11T14:46:44.780Z,7.55
2023-05-11T14:52:05.811Z,5.28
2023-05-11T14:57:26.112Z,6.70
2023-05-11T15:02:46.785Z,7.78
2023-05-11T15:08:12.921Z,4.90
2023-05-11T15:13:42.384Z,7.55
2023-05-11T15:19:03.554Z,5.18
2023-05-11T15:24:24.167Z,6.38
2023-05-11T15:29:44.829Z,7.88
2023-05-11T15:35:06.686Z,10.18
2023-05-11T15:40:28.244Z,8.65
2023-05-11T15:45:48.829Z,6.55
2023-05-11T15:51:09.352Z,9.13
2023-05-11T15:56:29.766Z,10.88
2023-05-11T16:01:50.523Z,8.60
2023-05-11T16:07:11.023Z,8.27
2023-05-11T16:12:31.607Z,9.10
2023-05-11T16:17:52.519Z,10.23
2023-05-11T16:23:13.565Z,11.20
2023-05-11T16:28:34.371Z,7.72
2023-05-11T16:33:54.999Z,8.73
2023-05-11T16:39:15.324Z,11.32
2023-05-11T16:44:35.926Z,9.77
2023-05-11T16:49:56.803Z,11.77
2023-05-11T16:55:17.451Z,11.07
2023-05-11T17:00:38.078Z,9.55
2023-05-11T17:05:58.974Z,10.05
2023-05-11T17:11:20.417Z,10.30
2023-05-11T17:16:41.007Z,11.15
2023-05-11T17:22:01.591Z,11.77
2023-05-11T17:27:22.904Z,12.95
2023-05-11T17:32:44.013Z,10.13
2023-05-11T17:38:07.268Z,12.10
2023-05-11T17:43:28.241Z,11.73
2023-05-11T17:48:49.175Z,10.95
2023-05-11T17:54:09.444Z,12.35
2023-05-11T17:59:30.133Z,11.43
2023-05-11T18:04:50.859Z,9.60
2023-05-11T18:10:11.300Z,10.18
2023-05-11T18:15:31.862Z,9.02
2023-05-11T18:20:52.588Z,12.70
2023-05-11T18:26:14.022Z,11.70
2023-05-11T18:31:34.201Z,9.85
2023-05-11T18:36:54.622Z,11.15
2023-05-11T18:49:42.214Z,12.35
2023-05-11T18:55:02.803Z,13.35
2023-05-11T19:00:23.338Z,10.38
2023-05-11T19:05:43.959Z,13.65
2023-05-11T19:11:09.446Z,13.60
2023-05-11T19:16:32.517Z,9.48
2023-05-11T19:21:53.056Z,10.32
2023-05-11T19:27:14.388Z,9.45
2023-05-11T19:32:35.927Z,15.75
2023-05-11T19:37:56.626Z,12.82
2023-05-11T19:43:17.362Z,8.65
2023-05-11T19:48:38.303Z,9.93
2023-05-11T19:53:59.010Z,11.10
2023-05-11T19:59:19.482Z,13.15
2023-05-11T20:04:45.454Z,10.98
2023-05-11T20:10:06.210Z,10.82
2023-05-11T20:15:26.902Z,8.10
2023-05-11T20:20:47.249Z,16.17
2023-05-11T20:26:07.843Z,15.15
2023-05-11T20:31:29.931Z,15.18
2023-05-11T20:36:53.753Z,15.68
2023-05-11T20:42:19.174Z,13.93
2023-05-11T20:47:39.557Z,15.13
2023-05-11T20:52:59.859Z,13.55
2023-05-11T20:58:20.356Z,17.80
2023-05-11T21:03:41.417Z,14.32
2023-05-11T21:09:03.748Z,16.75
2023-05-11T21:14:24.153Z,17.58
2023-05-11T21:19:44.582Z,22.50
2023-05-11T21:25:05.448Z,17.88
2023-05-11T21:30:26.956Z,19.45
2023-05-11T21:35:47.869Z,19.63
2023-05-11T21:41:08.615Z,19.20
2023-05-11T21:46:29.215Z,23.23
2023-05-11T21:51:50.170Z,21.70
2023-05-11T21:57:10.696Z,19.67
2023-05-11T22:02:31.476Z,20.38
2023-05-11T22:07:53.967Z,23.45
2023-05-11T22:13:17.973Z,26.20
2023-05-11T22:18:38.196Z,23.23
2023-05-11T22:23:59.104Z,24.42
2023-05-11T22:29:20.448Z,26.02
2023-05-11T22:34:41.093Z,24.45
2023-05-11T22:40:01.430Z,25.35
2023-05-11T22:45:22.201Z,23.52
2023-05-11T22:50:47.490Z,26.20
2023-05-11T22:56:09.097Z,32.33
2023-05-11T23:01:29.759Z,34.47
2023-05-11T23:06:50.216Z,28.23
2023-05-11T23:12:10.511Z,25.83
2023-05-11T23:17:31.182Z,31.50
2023-05-11T23:22:51.882Z,28.52
2023-05-11T23:28:12.207Z,28.92
2023-05-11T23:33:32.976Z,31.15
2023-05-11T23:38:53.784Z,26.40
2023-05-11T23:44:14.536Z,23.50
2023-05-11T23:49:35.166Z,26.88
2023-05-11T23:54:55.737Z,29.70
